Lawton Fort Sill Regional Airport
KLAW : now visible

Aeroporto :











RITROVATECI SU...

 
LOGIN :

Iscrizione | Disclaimer

   EN    FR    IT 

 









Sommario :    VFR   VFR Marginale   IFR   IFR Intensivo   IFR Molto Intensivo
Visibilità : 
Base nubi : 
>= 8 km
>= 3000ft
5 / 8 km
1000 / 3000 ft
1500m / 5 km
500 / 1000 ft
800 / 1500m
200 / 500 ft
< 800m
< 200 ft
Simboli :   Temporali  Nebbia  Neve Forte  Precipitazioni Forti  Vento > 20 kt






- Altitudine del aeroporto : 1110 ft


KLAW - Lawton Fort Sill Regional

ULTIMO METAR :
  • 200953Z AUTO 02015G24KT 10SM OVC075 07/M03 A3037 RMK AO2 SLP286 T00671033

METARs OBSOLETI :
  • 200853Z AUTO 02014KT 10SM OVC070 07/M03 A3036 RMK AO2 SLP281 T00721033 52015
  • 200753Z AUTO 02016KT 10SM OVC070 08/M03 A3035 RMK AO2 SLP277 T00831033

TAF KLAW
Valido dal 20 a 06 ore il 21 a 06 ore UTC


200520Z 2006/2106 03012KT P6SM OVC050
FM201000 02017G25KT P6SM OVC030
FM202000 02016G23KT P6SM BKN040
FM202300 01008KT P6SM SKC



MetMap, La meteo Aeronautica in un colpo d'occhio ! - Copyright ORBIFLY Dicembre 2007 - Disclaimer

ORBIFLY MET'MAP TEAM :

Programmazione e sviluppo : Alexandra Zaïnal
Concezione : Baudouin d'Aumeries
Aiuto per la programmazione : Marc-Olivier Méhu
Supporto tecnico e logistico : Manuel Goepfert
Aiuto per la traduzione : Arnaldo La Scala

Contatto : metmap@orbifly.com




FONTI E CREDITI :

   NOAA       Earth
Advisory